createdAt,value
2022-09-11T00:00:16.310Z,0.52
2022-09-11T00:03:04.978Z,1.40
2022-09-11T00:05:53.557Z,1.30
2022-09-11T00:08:44.082Z,0.25
2022-09-11T00:11:34.458Z,0.60
2022-09-11T00:14:22.974Z,2.85
2022-09-11T00:17:12.794Z,0.95
2022-09-11T00:20:02.135Z,0.38
2022-09-11T00:22:50.590Z,1.35
2022-09-11T00:25:41.028Z,0.30
2022-09-11T00:28:32.033Z,0.47
2022-09-11T00:31:21.973Z,0.28
2022-09-11T00:34:10.646Z,0.40
2022-09-11T00:36:59.093Z,0.47
2022-09-11T00:39:50.333Z,0.80
2022-09-11T00:42:40.314Z,0.40
2022-09-11T00:45:29.836Z,0.50
2022-09-11T00:48:23.062Z,0.28
2022-09-11T00:51:11.964Z,0.70
2022-09-11T00:54:00.895Z,0.77
2022-09-11T00:56:50.265Z,0.85
2022-09-11T00:59:43.947Z,0.57
2022-09-11T01:02:33.405Z,0.40
2022-09-11T01:05:23.430Z,0.55
2022-09-11T01:08:12.932Z,0.75
2022-09-11T01:11:09.854Z,1.48
2022-09-11T01:14:03.747Z,0.20
2022-09-11T01:16:56.429Z,0.82
2022-09-11T01:19:59.086Z,0.35
2022-09-11T01:22:59.314Z,0.85
2022-09-11T01:26:03.120Z,0.68
2022-09-11T01:28:57.699Z,1.67
2022-09-11T01:31:56.645Z,0.32
2022-09-11T01:34:51.968Z,0.73
2022-09-11T01:37:43.608Z,1.25
2022-09-11T01:40:36.760Z,1.08
2022-09-11T01:43:28.970Z,0.38
2022-09-11T01:46:23.181Z,1.35
2022-09-11T01:49:15.501Z,1.38
2022-09-11T01:52:08.808Z,0.98
2022-09-11T01:55:00.503Z,1.23
2022-09-11T01:57:51.977Z,2.30
2022-09-11T02:00:41.357Z,0.38
2022-09-11T02:03:35.583Z,0.95
2022-09-11T02:06:28.158Z,1.08
2022-09-11T02:09:22.950Z,0.40
2022-09-11T02:12:13.366Z,0.40
2022-09-11T02:15:01.994Z,0.82
2022-09-11T02:17:53.251Z,0.75
2022-09-11T02:20:47.565Z,0.50
2022-09-11T02:23:36.014Z,0.68
2022-09-11T02:26:26.321Z,0.20
2022-09-11T02:29:15.437Z,0.55
2022-09-11T02:32:04.624Z,1.10
2022-09-11T02:34:55.471Z,0.55
2022-09-11T02:37:50.469Z,0.40
2022-09-11T02:40:46.306Z,0.43
2022-09-11T02:43:42.495Z,0.40
2022-09-11T02:46:40.120Z,0.73
2022-09-11T02:49:38.218Z,0.70
2022-09-11T02:52:36.026Z,1.10
2022-09-11T02:55:32.600Z,0.40
2022-09-11T02:58:24.694Z,1.17
2022-09-11T03:01:13.247Z,1.05
2022-09-11T03:04:01.903Z,0.73
2022-09-11T03:06:50.409Z,0.70
2022-09-11T03:09:38.914Z,3.13
2022-09-11T03:12:28.779Z,0.40
2022-09-11T03:15:17.478Z,1.08
2022-09-11T03:18:06.918Z,1.17
2022-09-11T03:20:55.403Z,3.95
2022-09-11T03:23:44.146Z,1.75
2022-09-11T03:26:33.609Z,1.45
2022-09-11T03:29:23.947Z,0.60
2022-09-11T03:32:12.629Z,0.80
2022-09-11T03:35:02.395Z,0.30
2022-09-11T03:37:50.835Z,0.75
2022-09-11T03:40:39.430Z,0.85
2022-09-11T03:43:27.880Z,0.45
2022-09-11T03:46:18.546Z,3.30
2022-09-11T03:49:07.189Z,1.00
2022-09-11T03:51:57.028Z,1.05
2022-09-11T03:54:47.860Z,0.30
2022-09-11T03:57:38.680Z,0.95
2022-09-11T04:00:27.493Z,0.47
2022-09-11T04:03:19.172Z,0.40
2022-09-11T04:06:08.741Z,0.22
2022-09-11T04:08:57.468Z,2.30
2022-09-11T04:11:47.194Z,0.82
2022-09-11T04:14:35.730Z,0.20
2022-09-11T04:17:24.481Z,0.40
2022-09-11T04:20:14.314Z,0.40
2022-09-11T04:23:02.991Z,0.52
2022-09-11T04:25:52.475Z,0.43
2022-09-11T04:28:41.047Z,0.57
2022-09-11T04:31:29.668Z,0.52
2022-09-11T04:34:18.318Z,0.75
2022-09-11T04:37:08.153Z,8.07
2022-09-11T04:39:56.702Z,0.47
2022-09-11T04:42:45.139Z,0.82
2022-09-11T04:45:34.000Z,5.13
2022-09-11T04:48:22.600Z,0.50
2022-09-11T04:51:11.139Z,0.55
2022-09-11T04:54:01.958Z,0.40
2022-09-11T04:56:50.894Z,0.38
2022-09-11T04:59:40.187Z,1.65
2022-09-11T05:02:28.769Z,0.80
2022-09-11T05:05:17.885Z,0.57
2022-09-11T05:08:07.458Z,0.40
2022-09-11T05:11:00.045Z,2.05
2022-09-11T05:13:48.990Z,0.30
2022-09-11T05:16:38.215Z,0.57
2022-09-11T05:19:26.871Z,0.50
2022-09-11T05:22:16.030Z,0.68
2022-09-11T05:25:05.224Z,0.90
2022-09-11T05:27:55.170Z,1.58
2022-09-11T05:30:44.056Z,0.93
2022-09-11T05:33:32.595Z,1.40
2022-09-11T05:36:21.713Z,3.05
2022-09-11T05:39:11.030Z,0.47
2022-09-11T05:41:59.981Z,0.50
2022-09-11T05:44:49.874Z,0.35
2022-09-11T05:47:39.143Z,0.80
2022-09-11T05:50:27.588Z,0.40
2022-09-11T05:53:17.383Z,1.08
2022-09-11T05:56:09.773Z,2.97
2022-09-11T05:58:58.853Z,3.10
2022-09-11T06:01:48.727Z,2.08
2022-09-11T06:04:39.325Z,1.13
2022-09-11T06:07:27.806Z,0.65
2022-09-11T06:10:17.015Z,1.10
2022-09-11T06:13:06.733Z,0.57
2022-09-11T06:15:55.161Z,1.35
2022-09-11T06:18:45.045Z,0.85
2022-09-11T06:21:33.719Z,0.68
2022-09-11T06:24:26.553Z,1.38
2022-09-11T06:27:15.321Z,0.82
2022-09-11T06:30:03.993Z,2.33
2022-09-11T06:32:52.455Z,0.77
2022-09-11T06:35:42.359Z,1.65
2022-09-11T06:38:31.817Z,2.17
2022-09-11T06:41:22.102Z,0.70
2022-09-11T06:44:11.225Z,1.85
2022-09-11T06:46:59.692Z,2.47
2022-09-11T06:49:48.179Z,1.10
2022-09-11T06:52:38.061Z,1.73
2022-09-11T06:55:27.693Z,1.60
2022-09-11T06:58:16.443Z,0.90
2022-09-11T07:01:05.236Z,2.05
2022-09-11T07:03:56.191Z,3.38
2022-09-11T07:06:44.587Z,2.92
2022-09-11T07:09:34.458Z,2.10
2022-09-11T07:12:23.900Z,0.60
2022-09-11T07:15:14.044Z,0.82
2022-09-11T07:18:02.905Z,1.15
2022-09-11T07:20:51.322Z,1.60
2022-09-11T07:23:40.420Z,1.15
2022-09-11T07:26:30.788Z,2.20
2022-09-11T07:29:19.257Z,1.65
2022-09-11T07:32:08.019Z,1.60
2022-09-11T07:34:56.548Z,2.42
2022-09-11T07:37:48.922Z,2.60
2022-09-11T07:40:39.227Z,3.60
2022-09-11T07:43:28.976Z,1.08
2022-09-11T07:46:17.538Z,1.13
2022-09-11T07:49:08.188Z,1.25
2022-09-11T07:51:56.962Z,2.72
2022-09-11T07:54:45.615Z,4.68
2022-09-11T07:57:34.087Z,2.20
2022-09-11T08:00:27.905Z,3.47
2022-09-11T08:03:17.498Z,7.85
2022-09-11T08:06:08.057Z,1.17
2022-09-11T08:09:00.534Z,1.75
2022-09-11T08:11:53.378Z,1.88
2022-09-11T08:14:42.083Z,1.60
2022-09-11T08:17:31.988Z,7.47
2022-09-11T08:20:20.502Z,1.80
2022-09-11T08:23:09.838Z,2.42
2022-09-11T08:25:58.359Z,1.48
2022-09-11T08:28:50.185Z,2.13
2022-09-11T08:31:38.965Z,1.33
2022-09-11T08:34:29.410Z,1.38
2022-09-11T08:37:18.308Z,1.48
2022-09-11T08:40:09.417Z,1.75
2022-09-11T08:42:59.286Z,2.75
2022-09-11T08:45:48.560Z,1.60
2022-09-11T08:48:45.232Z,1.85
2022-09-11T08:51:35.405Z,3.08
2022-09-11T08:54:28.131Z,2.28
2022-09-11T08:57:19.995Z,2.50
2022-09-11T09:00:15.737Z,2.78
2022-09-11T09:03:16.956Z,2.85
2022-09-11T09:06:22.588Z,2.75
2022-09-11T09:09:18.557Z,4.25
2022-09-11T09:12:11.269Z,6.90
2022-09-11T09:15:10.894Z,7.50
2022-09-11T09:18:02.940Z,9.88
2022-09-11T09:21:00.907Z,9.75
2022-09-11T09:23:53.177Z,9.48
2022-09-11T09:26:43.088Z,6.00
2022-09-11T09:29:37.076Z,7.40
2022-09-11T09:32:31.016Z,7.78
2022-09-11T09:35:22.415Z,6.90
2022-09-11T09:38:14.105Z,7.82
2022-09-11T09:41:17.033Z,7.18
2022-09-11T09:44:11.779Z,7.40
2022-09-11T09:47:04.641Z,9.68
2022-09-11T09:49:54.947Z,8.50
2022-09-11T09:52:43.489Z,8.13
2022-09-11T09:55:35.858Z,10.70
2022-09-11T09:58:26.132Z,10.23
2022-09-11T10:01:47.745Z,7.00
2022-09-11T10:04:36.370Z,7.10
2022-09-11T10:07:24.883Z,7.95
2022-09-11T10:10:23.256Z,7.15
2022-09-11T10:13:21.332Z,6.70
2022-09-11T10:16:21.013Z,11.32
2022-09-11T10:19:41.008Z,8.82
2022-09-11T10:22:32.389Z,8.68
2022-09-11T10:25:22.610Z,9.43
2022-09-11T10:28:14.550Z,8.48
2022-09-11T10:31:04.377Z,8.20
2022-09-11T10:33:56.514Z,7.93
2022-09-11T10:36:55.004Z,8.13
2022-09-11T10:39:45.858Z,9.50
2022-09-11T10:42:37.937Z,7.15
2022-09-11T10:45:26.744Z,7.05
2022-09-11T10:48:23.784Z,10.90
2022-09-11T10:51:14.342Z,7.97
2022-09-11T10:54:18.468Z,11.25
2022-09-11T10:57:13.180Z,9.55
2022-09-11T11:00:08.123Z,6.00
2022-09-11T11:03:00.303Z,5.35
2022-09-11T11:05:59.969Z,7.57
2022-09-11T11:09:06.213Z,9.63
2022-09-11T11:12:09.792Z,6.35
2022-09-11T11:15:30.212Z,5.78
2022-09-11T11:18:27.612Z,7.03
2022-09-11T11:21:24.353Z,5.32
2022-09-11T11:24:22.029Z,5.85
2022-09-11T11:27:38.669Z,6.28
2022-09-11T11:30:31.603Z,7.72
2022-09-11T11:33:39.053Z,8.68
2022-09-11T11:36:32.306Z,6.82
2022-09-11T11:39:26.158Z,8.30
2022-09-11T11:42:19.107Z,7.35
2022-09-11T11:45:11.622Z,7.18
2022-09-11T11:48:01.152Z,6.10
2022-09-11T11:50:52.728Z,7.43
2022-09-11T11:53:45.941Z,9.07
2022-09-11T11:56:43.462Z,8.10
2022-09-11T11:59:40.272Z,12.35
2022-09-11T12:02:33.374Z,12.15
2022-09-11T12:05:24.441Z,9.73
2022-09-11T12:08:17.276Z,8.50
2022-09-11T12:11:07.717Z,7.25
2022-09-11T12:13:56.721Z,10.95
2022-09-11T12:16:48.493Z,6.88
2022-09-11T12:19:36.938Z,8.57
2022-09-11T12:22:39.063Z,8.07
2022-09-11T12:25:53.328Z,6.35
2022-09-11T12:28:42.230Z,7.18
2022-09-11T12:32:06.912Z,5.22
2022-09-11T12:35:05.022Z,4.70
2022-09-11T12:37:58.360Z,5.28
2022-09-11T12:40:51.831Z,4.50
2022-09-11T12:43:48.617Z,7.63
2022-09-11T12:47:14.915Z,4.80
2022-09-11T12:50:10.525Z,5.85
2022-09-11T12:53:02.415Z,5.03
2022-09-11T12:55:58.607Z,3.60
2022-09-11T12:58:48.719Z,8.25
2022-09-11T13:01:38.790Z,4.03
2022-09-11T13:04:31.068Z,6.38
2022-09-11T13:07:29.006Z,4.50
2022-09-11T13:10:28.996Z,6.38
2022-09-11T13:13:47.190Z,4.22
2022-09-11T13:16:35.985Z,6.97
2022-09-11T13:19:26.299Z,10.18
2022-09-11T13:22:27.876Z,6.28
2022-09-11T13:25:18.762Z,4.82
2022-09-11T13:28:07.825Z,7.25
2022-09-11T13:31:00.461Z,7.03
2022-09-11T13:33:50.856Z,4.65
2022-09-11T13:36:40.839Z,5.75
2022-09-11T13:39:31.152Z,6.40
2022-09-11T13:42:23.101Z,4.80
2022-09-11T13:45:17.672Z,5.20
2022-09-11T13:48:14.652Z,6.20
2022-09-11T13:51:05.002Z,3.63
2022-09-11T13:53:58.698Z,3.97
2022-09-11T13:57:09.033Z,3.33
2022-09-11T13:59:58.366Z,4.97
2022-09-11T14:02:51.067Z,2.65
2022-09-11T14:05:40.084Z,3.28
2022-09-11T14:08:34.320Z,4.55
2022-09-11T14:11:26.093Z,3.22
2022-09-11T14:14:23.196Z,2.38
2022-09-11T14:17:13.816Z,2.28
2022-09-11T14:20:03.692Z,2.80
2022-09-11T14:22:55.445Z,3.38
2022-09-11T14:26:05.777Z,11.25
2022-09-11T14:29:02.972Z,3.58
2022-09-11T14:31:53.516Z,3.28
2022-09-11T14:34:42.247Z,2.58
2022-09-11T14:37:34.669Z,2.55
2022-09-11T14:40:23.326Z,3.30
2022-09-11T14:43:13.173Z,3.03
2022-09-11T14:46:02.810Z,4.68
2022-09-11T14:48:54.983Z,4.47
2022-09-11T14:51:53.578Z,4.20
2022-09-11T14:54:42.050Z,3.40
2022-09-11T14:57:32.618Z,3.70
2022-09-11T15:00:21.826Z,3.05
2022-09-11T15:03:10.198Z,2.78
2022-09-11T15:06:00.408Z,4.15
2022-09-11T15:08:49.157Z,3.00
2022-09-11T15:11:39.562Z,3.13
2022-09-11T15:14:52.395Z,5.20
2022-09-11T15:17:39.411Z,3.85
2022-09-11T15:20:28.415Z,26.33
2022-09-11T15:23:18.277Z,6.72
2022-09-11T15:26:08.331Z,5.35
2022-09-11T15:28:57.425Z,2.58
2022-09-11T15:31:46.805Z,3.40
2022-09-11T15:34:38.680Z,3.67
2022-09-11T15:37:27.811Z,3.80
2022-09-11T15:40:17.875Z,3.90
2022-09-11T15:43:06.439Z,4.75
2022-09-11T15:45:56.954Z,4.85
2022-09-11T15:48:45.590Z,3.35
2022-09-11T15:51:34.953Z,2.97
2022-09-11T15:54:23.727Z,6.47
2022-09-11T15:57:13.748Z,3.42
2022-09-11T16:00:02.438Z,4.07
2022-09-11T16:02:53.302Z,5.90
2022-09-11T16:05:43.044Z,2.95
2022-09-11T16:08:31.609Z,3.60
2022-09-11T16:11:24.555Z,8.77
2022-09-11T16:14:18.759Z,7.20
2022-09-11T16:17:08.618Z,13.02
2022-09-11T16:19:57.389Z,5.60
2022-09-11T16:22:46.347Z,5.40
2022-09-11T16:25:39.841Z,3.67
2022-09-11T16:28:28.588Z,3.17
2022-09-11T16:31:18.357Z,3.70
2022-09-11T16:34:07.388Z,4.40
2022-09-11T16:36:56.244Z,7.50
2022-09-11T16:39:47.181Z,5.80
2022-09-11T16:42:35.862Z,4.28
2022-09-11T16:45:24.443Z,4.97
2022-09-11T16:48:14.235Z,8.95
2022-09-11T16:51:03.029Z,4.95
2022-09-11T16:53:52.421Z,6.13
2022-09-11T16:56:45.932Z,4.45
2022-09-11T16:59:34.876Z,4.13
2022-09-11T17:02:23.353Z,3.72
2022-09-11T17:05:13.302Z,4.25
2022-09-11T17:08:01.761Z,4.88
2022-09-11T17:10:51.570Z,4.22
2022-09-11T17:13:40.091Z,3.42
2022-09-11T17:16:32.134Z,4.30
2022-09-11T17:19:20.846Z,7.72
2022-09-11T17:22:10.674Z,3.88
2022-09-11T17:24:59.184Z,4.10
2022-09-11T17:27:47.613Z,4.85
2022-09-11T17:30:39.992Z,3.85
2022-09-11T17:33:28.724Z,5.78
2022-09-11T17:36:18.999Z,4.00
2022-09-11T17:39:11.101Z,6.10
2022-09-11T17:41:59.979Z,4.75
2022-09-11T17:44:48.791Z,4.20
2022-09-11T17:47:37.580Z,4.40
2022-09-11T17:50:26.173Z,6.30
2022-09-11T17:53:14.715Z,4.30
2022-09-11T17:56:06.848Z,6.30
2022-09-11T17:58:57.510Z,4.10
2022-09-11T18:01:47.372Z,3.83
2022-09-11T18:04:36.035Z,4.75
2022-09-11T18:07:24.699Z,3.95
2022-09-11T18:10:13.311Z,7.95
2022-09-11T18:13:03.154Z,3.45
2022-09-11T18:15:52.417Z,3.50
2022-09-11T18:18:42.252Z,3.20
2022-09-11T18:21:31.611Z,3.72
2022-09-11T18:24:20.865Z,9.07
2022-09-11T18:27:10.186Z,3.42
2022-09-11T18:30:00.475Z,4.82
2022-09-11T18:32:50.511Z,3.22
2022-09-11T18:35:39.176Z,4.38
2022-09-11T18:38:32.917Z,4.50
2022-09-11T18:41:23.144Z,4.75
2022-09-11T18:44:18.889Z,4.38
2022-09-11T18:47:11.316Z,4.38
2022-09-11T18:50:00.948Z,2.13
2022-09-11T18:52:51.954Z,2.50
2022-09-11T18:55:40.947Z,3.80
2022-09-11T18:58:33.027Z,2.47
2022-09-11T19:01:24.332Z,2.83
2022-09-11T19:04:16.370Z,3.45
2022-09-11T19:07:07.578Z,3.15
2022-09-11T19:09:56.009Z,2.22
2022-09-11T19:12:44.931Z,2.90
2022-09-11T19:15:33.386Z,4.07
2022-09-11T19:18:24.033Z,2.42
2022-09-11T19:21:15.871Z,8.45
2022-09-11T19:24:04.658Z,2.72
2022-09-11T19:26:53.639Z,3.60
2022-09-11T19:29:42.178Z,5.25
2022-09-11T19:32:31.108Z,5.05
2022-09-11T19:35:19.541Z,3.00
2022-09-11T19:38:09.324Z,2.70
2022-09-11T19:41:00.268Z,7.85
2022-09-11T19:43:49.431Z,2.92
2022-09-11T19:46:38.355Z,6.72
2022-09-11T19:49:26.897Z,3.35
2022-09-11T19:52:15.865Z,4.43
2022-09-11T19:55:06.409Z,4.13
2022-09-11T19:57:57.392Z,7.38
2022-09-11T20:00:48.911Z,3.50
2022-09-11T20:03:37.423Z,4.00
2022-09-11T20:06:28.826Z,2.80
2022-09-11T20:09:31.087Z,2.70
2022-09-11T20:12:23.167Z,3.10
2022-09-11T20:15:12.341Z,4.20
2022-09-11T20:18:00.865Z,6.35
2022-09-11T20:20:49.329Z,2.70
2022-09-11T20:23:38.136Z,2.85
2022-09-11T20:26:28.619Z,2.80
2022-09-11T20:29:27.934Z,2.40
2022-09-11T20:32:18.147Z,3.85
2022-09-11T20:35:07.665Z,4.13
2022-09-11T20:37:56.159Z,5.72
2022-09-11T20:40:46.271Z,4.00
2022-09-11T20:43:37.291Z,5.20
2022-09-11T20:46:27.517Z,3.90
2022-09-11T20:49:16.257Z,2.70
2022-09-11T20:52:04.831Z,3.35
2022-09-11T20:54:54.299Z,3.17
2022-09-11T20:57:42.755Z,5.18
2022-09-11T21:00:33.795Z,3.75
2022-09-11T21:03:23.641Z,3.95
2022-09-11T21:06:12.112Z,4.25
2022-09-11T21:09:04.127Z,2.58
2022-09-11T21:11:52.581Z,2.20
2022-09-11T21:14:41.097Z,2.42
2022-09-11T21:17:29.476Z,4.55
2022-09-11T21:20:19.303Z,2.80
2022-09-11T21:23:08.230Z,2.70
2022-09-11T21:25:56.708Z,2.90
2022-09-11T21:28:45.259Z,3.15
2022-09-11T21:31:34.127Z,3.33
2022-09-11T21:34:22.630Z,3.72
2022-09-11T21:37:12.478Z,5.85
2022-09-11T21:40:00.992Z,3.90
2022-09-11T21:42:49.500Z,3.22
2022-09-11T21:45:38.960Z,5.95
2022-09-11T21:48:28.333Z,11.77
2022-09-11T21:51:21.015Z,2.65
2022-09-11T21:54:10.777Z,2.25
2022-09-11T21:57:00.540Z,3.05
2022-09-11T21:59:48.998Z,3.90
2022-09-11T22:02:37.927Z,2.90
2022-09-11T22:05:26.466Z,3.13
2022-09-11T22:08:17.062Z,3.53
2022-09-11T22:11:06.937Z,3.08
2022-09-11T22:13:56.202Z,3.53
2022-09-11T22:16:44.633Z,2.70
2022-09-11T22:19:34.407Z,2.63
2022-09-11T22:22:23.042Z,1.98
2022-09-11T22:25:12.693Z,1.75
2022-09-11T22:28:04.670Z,2.85
2022-09-11T22:30:53.299Z,2.03
2022-09-11T22:33:44.038Z,2.78
2022-09-11T22:36:33.486Z,2.50
2022-09-11T22:39:22.072Z,2.10
2022-09-11T22:42:10.772Z,1.95
2022-09-11T22:45:01.007Z,1.88
2022-09-11T22:47:49.863Z,2.30
2022-09-11T22:50:40.462Z,3.55
2022-09-11T22:53:32.131Z,2.97
2022-09-11T22:56:20.638Z,2.17
2022-09-11T22:59:09.347Z,3.03
2022-09-11T23:02:02.529Z,2.20
2022-09-11T23:05:05.222Z,2.67
2022-09-11T23:07:54.425Z,3.00
2022-09-11T23:10:46.503Z,2.55
2022-09-11T23:13:37.680Z,2.80
2022-09-11T23:16:28.369Z,2.65
2022-09-11T23:19:18.246Z,5.50
2022-09-11T23:22:06.922Z,4.43
2022-09-11T23:24:55.881Z,2.70
2022-09-11T23:27:45.345Z,4.28
2022-09-11T23:30:33.790Z,2.20
2022-09-11T23:33:22.167Z,4.90
2022-09-11T23:36:14.088Z,2.72
2022-09-11T23:39:03.249Z,2.10
2022-09-11T23:41:51.776Z,3.53
2022-09-11T23:44:40.176Z,2.95
2022-09-11T23:47:28.659Z,3.45
2022-09-11T23:50:17.622Z,3.05
2022-09-11T23:53:07.396Z,2.92
2022-09-11T23:55:56.356Z,2.28
2022-09-11T23:58:45.596Z,2.55
